Time;durP1;ratioP1;P1;durP2;ratioP2;P2;SDS_P1;SDS_P2;PMS_P1;PMS_P2;Temp;Humidity;BMP_temperature;BMP_pressure;BME280_temperature;BME280_humidity;BME280_pressure;Samples;Min_cycle;Max_cycle;Signal;HPM_P1;HPM_P2
2023/03/04 00:01:44;;;;;;;0.70;0.70;;;6.50;99.90;;;;;;6216015;23;20055;-73
2023/03/04 00:04:10;;;;;;;0.65;0.65;;;6.50;99.90;;;;;;6216359;23;20144;-74
2023/03/04 00:06:35;;;;;;;0.70;0.70;;;6.40;99.90;;;;;;6189497;23;20008;-73
2023/03/04 00:09:02;;;;;;;0.70;0.70;;;6.40;99.90;;;;;;6216374;23;20009;-73
2023/03/04 00:11:28;;;;;;;0.50;0.50;;;6.50;99.90;;;;;;6189429;23;20008;-73
2023/03/04 00:13:55;;;;;;;0.60;0.60;;;6.60;99.90;;;;;;6216168;23;20063;-73
2023/03/04 00:16:20;;;;;;;0.60;0.60;;;6.60;99.90;;;;;;6216216;23;20019;-73
2023/03/04 00:18:46;;;;;;;0.70;0.70;;;6.60;99.90;;;;;;6216080;23;20087;-73
2023/03/04 00:21:11;;;;;;;0.60;0.60;;;6.60;99.90;;;;;;6216169;23;20015;-73
2023/03/04 00:23:40;;;;;;;0.50;0.50;;;6.50;99.90;;;;;;6216201;23;20373;-73
2023/03/04 00:26:06;;;;;;;0.60;0.60;;;6.50;99.90;;;;;;6215877;23;20013;-73
2023/03/04 00:28:32;;;;;;;0.70;0.70;;;6.50;99.90;;;;;;6189286;23;20016;-73
2023/03/04 00:30:58;;;;;;;0.60;0.60;;;6.40;99.90;;;;;;6189285;23;20079;-74
2023/03/04 00:33:23;;;;;;;0.60;0.60;;;6.40;99.90;;;;;;6189317;23;20017;-74
2023/03/04 00:35:49;;;;;;;0.68;0.68;;;6.40;99.90;;;;;;6216126;23;20344;-74
2023/03/04 00:38:15;;;;;;;0.70;0.60;;;6.30;99.90;;;;;;6216209;23;20051;-73
2023/03/04 00:40:40;;;;;;;0.60;0.60;;;6.20;99.90;;;;;;6215788;23;20031;-73
2023/03/04 00:43:06;;;;;;;0.70;0.70;;;6.20;99.90;;;;;;6215812;23;20022;-73
2023/03/04 00:45:31;;;;;;;0.77;0.77;;;6.30;99.90;;;;;;6216105;23;20013;-73
2023/03/04 00:47:57;;;;;;;0.50;0.50;;;6.30;99.90;;;;;;6189299;23;20017;-73
2023/03/04 00:50:23;;;;;;;0.60;0.60;;;6.30;99.90;;;;;;6189328;23;20314;-73
2023/03/04 00:52:48;;;;;;;0.60;0.60;;;6.30;99.90;;;;;;6216264;23;20039;-73
2023/03/04 00:55:14;;;;;;;0.60;0.60;;;6.40;99.90;;;;;;6216220;23;20016;-73
2023/03/04 00:57:40;;;;;;;0.65;0.63;;;6.40;99.90;;;;;;6216066;23;20016;-73
2023/03/04 01:00:06;;;;;;;0.50;0.50;;;6.40;99.90;;;;;;6189517;23;20015;-73
2023/03/04 01:02:31;;;;;;;0.80;0.70;;;6.40;99.90;;;;;;6215824;23;20013;-74
2023/03/04 01:04:57;;;;;;;0.70;0.70;;;6.40;99.90;;;;;;6189246;23;20024;-74
2023/03/04 01:07:23;;;;;;;0.60;0.60;;;6.40;99.90;;;;;;6216288;23;20321;-74
2023/03/04 01:09:48;;;;;;;0.57;0.57;;;6.40;99.90;;;;;;6189333;23;20039;-73
2023/03/04 01:12:14;;;;;;;0.70;0.70;;;6.30;99.90;;;;;;6215771;23;20024;-74
2023/03/04 01:14:40;;;;;;;0.60;0.60;;;6.30;99.90;;;;;;6216113;23;20436;-73
2023/03/04 01:17:05;;;;;;;0.60;0.60;;;6.20;99.90;;;;;;6189129;23;20381;-73
2023/03/04 01:19:31;;;;;;;0.60;0.60;;;6.20;99.90;;;;;;6215938;23;20495;-73
2023/03/04 01:21:57;;;;;;;0.60;0.60;;;6.30;99.90;;;;;;6189056;23;20500;-74
2023/03/04 01:24:22;;;;;;;0.70;0.60;;;6.30;99.90;;;;;;6189004;23;20464;-73
2023/03/04 01:26:48;;;;;;;0.60;0.60;;;6.30;99.90;;;;;;6216020;23;20044;-73
2023/03/04 01:29:14;;;;;;;0.77;0.77;;;6.30;99.90;;;;;;6190288;23;20472;-73
2023/03/04 01:31:39;;;;;;;0.52;0.52;;;6.30;99.90;;;;;;6190941;23;20021;-73
2023/03/04 01:34:05;;;;;;;0.50;0.50;;;6.20;99.90;;;;;;6190864;23;20059;-73
2023/03/04 01:36:31;;;;;;;0.70;0.70;;;6.20;99.90;;;;;;6190825;23;20047;-74
2023/03/04 01:38:56;;;;;;;0.73;0.73;;;6.20;99.90;;;;;;6191015;23;20485;-74
2023/03/04 01:41:24;;;;;;;0.90;0.90;;;6.20;99.90;;;;;;6217265;23;20377;-73
2023/03/04 01:43:50;;;;;;;0.57;0.57;;;6.20;99.90;;;;;;6217514;23;20017;-74
2023/03/04 01:46:16;;;;;;;0.60;0.60;;;6.20;99.90;;;;;;6190710;23;20346;-73
2023/03/04 01:48:43;;;;;;;0.63;0.63;;;6.20;99.90;;;;;;6190713;23;20062;-73
2023/03/04 01:51:15;;;;;;;0.50;0.50;;;6.20;99.90;;;;;;6217570;23;20008;-74
2023/03/04 01:53:42;;;;;;;0.50;0.50;;;6.20;99.90;;;;;;6190579;23;20074;-74
2023/03/04 01:56:36;;;;;;;0.60;0.60;;;6.10;99.90;;;;;;6190625;23;20323;-74
2023/03/04 01:59:29;;;;;;;0.70;0.70;;;6.10;99.90;;;;;;6191051;23;20008;-74
2023/03/04 02:01:59;;;;;;;0.70;0.70;;;6.10;99.90;;;;;;6217545;23;20043;-74
2023/03/04 02:04:29;;;;;;;0.40;0.40;;;6.10;99.90;;;;;;6218149;23;20009;-73
2023/03/04 02:06:56;;;;;;;0.60;0.60;;;6.10;99.90;;;;;;6190906;23;20020;-73
2023/03/04 02:09:22;;;;;;;0.70;0.70;;;6.10;99.90;;;;;;6217435;23;20012;-73
2023/03/04 02:11:50;;;;;;;0.60;0.60;;;6.10;99.90;;;;;;6190498;23;20055;-73
2023/03/04 02:14:17;;;;;;;0.70;0.68;;;6.20;99.90;;;;;;6190590;23;20162;-73
2023/03/04 02:16:43;;;;;;;0.60;0.60;;;6.20;99.90;;;;;;6191563;23;20004;-73
2023/03/04 02:19:41;;;;;;;0.60;0.60;;;6.20;99.90;;;;;;6190548;23;20342;-73
2023/03/04 02:22:06;;;;;;;0.57;0.57;;;6.20;99.90;;;;;;6215432;23;20430;-74
2023/03/04 02:24:39;;;;;;;0.60;0.60;;;6.20;99.90;;;;;;6191088;23;20070;-74
2023/03/04 02:27:05;;;;;;;0.70;0.70;;;6.20;99.90;;;;;;6217003;23;20107;-73
2023/03/04 02:29:31;;;;;;;0.60;0.60;;;6.10;99.90;;;;;;6190431;23;20017;-73
2023/03/04 02:31:57;;;;;;;0.65;0.65;;;6.10;99.90;;;;;;6190285;23;20016;-73
2023/03/04 02:34:27;;;;;;;0.63;0.63;;;6.10;99.90;;;;;;6217094;23;20394;-73
2023/03/04 02:36:54;;;;;;;0.75;0.60;;;6.10;99.90;;;;;;6217212;23;20092;-73
2023/03/04 02:39:20;;;;;;;0.63;0.57;;;6.10;99.90;;;;;;6217157;23;20016;-73
2023/03/04 02:41:51;;;;;;;0.60;0.60;;;6.10;99.90;;;;;;6216399;23;20023;-73
2023/03/04 02:44:26;;;;;;;0.60;0.60;;;6.20;99.90;;;;;;6190240;23;20020;-73
2023/03/04 02:46:53;;;;;;;0.55;0.55;;;6.10;99.90;;;;;;6190654;23;20017;-73
2023/03/04 02:49:20;;;;;;;0.60;0.60;;;6.10;99.90;;;;;;6190112;23;20020;-73
2023/03/04 02:51:49;;;;;;;0.55;0.55;;;6.10;99.90;;;;;;6165326;23;20376;-73
2023/03/04 02:54:17;;;;;;;0.70;0.70;;;6.00;99.90;;;;;;6190023;23;20433;-73
2023/03/04 02:56:51;;;;;;;0.70;0.70;;;6.00;99.90;;;;;;6190899;23;20325;-73
2023/03/04 02:59:17;;;;;;;0.70;0.70;;;5.90;99.90;;;;;;6217207;23;20066;-73
2023/03/04 03:01:43;;;;;;;0.57;0.57;;;5.80;99.90;;;;;;6190057;23;20013;-73
2023/03/04 03:04:09;;;;;;;0.60;0.60;;;5.80;99.90;;;;;;6190156;23;20016;-73
2023/03/04 03:06:35;;;;;;;0.50;0.50;;;5.80;99.90;;;;;;6216917;23;20080;-73
2023/03/04 03:09:01;;;;;;;0.50;0.50;;;5.70;99.90;;;;;;6216458;23;20461;-73
2023/03/04 03:11:26;;;;;;;0.70;0.70;;;5.80;99.90;;;;;;6189920;23;20139;-73
2023/03/04 03:13:52;;;;;;;0.60;0.60;;;5.70;99.90;;;;;;6190106;23;20051;-73
2023/03/04 03:16:18;;;;;;;0.70;0.70;;;5.70;99.90;;;;;;6190074;23;20526;-73
2023/03/04 03:18:43;;;;;;;0.75;0.75;;;5.70;99.90;;;;;;6189858;23;20016;-74
2023/03/04 03:21:09;;;;;;;0.60;0.60;;;5.60;99.90;;;;;;6189995;23;20023;-73
2023/03/04 03:23:35;;;;;;;0.60;0.60;;;5.70;99.90;;;;;;6216794;23;20012;-73
2023/03/04 03:26:01;;;;;;;0.63;0.60;;;5.70;99.90;;;;;;6189755;23;20017;-73
2023/03/04 03:28:27;;;;;;;0.60;0.60;;;5.70;99.90;;;;;;6189991;23;20020;-73
2023/03/04 03:30:53;;;;;;;0.60;0.60;;;5.70;99.90;;;;;;6189621;23;20400;-73
2023/03/04 03:33:19;;;;;;;0.52;0.52;;;5.70;99.90;;;;;;6189714;23;20516;-73
2023/03/04 03:35:44;;;;;;;0.50;0.50;;;5.60;99.90;;;;;;6164894;23;20020;-73
2023/03/04 03:38:10;;;;;;;0.65;0.65;;;5.60;99.90;;;;;;6189558;23;20048;-73
2023/03/04 03:40:35;;;;;;;0.70;0.70;;;5.60;99.90;;;;;;6216256;23;20382;-73
2023/03/04 03:43:01;;;;;;;0.70;0.70;;;5.60;99.90;;;;;;6189618;23;20016;-73
2023/03/04 03:45:27;;;;;;;0.50;0.50;;;5.50;99.90;;;;;;6189550;23;20096;-73
2023/03/04 03:47:53;;;;;;;0.80;0.75;;;5.50;99.90;;;;;;6189570;23;20018;-73
2023/03/04 03:50:18;;;;;;;0.50;0.50;;;5.60;99.90;;;;;;6189612;23;20016;-73
2023/03/04 03:52:44;;;;;;;0.40;0.40;;;5.60;99.90;;;;;;6190527;23;20020;-73
2023/03/04 03:55:10;;;;;;;0.60;0.60;;;5.60;99.90;;;;;;6190945;23;20442;-74
2023/03/04 03:57:35;;;;;;;0.60;0.60;;;5.60;99.90;;;;;;6189503;23;20012;-73
2023/03/04 04:00:01;;;;;;;0.63;0.63;;;5.60;99.90;;;;;;6165259;23;20011;-74
2023/03/04 04:02:27;;;;;;;0.50;0.50;;;5.60;99.90;;;;;;6215970;23;20012;-74
2023/03/04 04:04:52;;;;;;;0.50;0.50;;;5.70;99.90;;;;;;6216468;23;20017;-74
2023/03/04 04:07:18;;;;;;;0.40;0.40;;;5.60;99.90;;;;;;6189490;23;20019;-74
2023/03/04 04:09:44;;;;;;;0.60;0.60;;;5.70;99.90;;;;;;6216294;23;20302;-74
2023/03/04 04:12:13;;;;;;;0.50;0.50;;;5.60;99.90;;;;;;6189568;23;20089;-74
2023/03/04 04:14:40;;;;;;;0.70;0.70;;;5.70;99.90;;;;;;6216554;23;20016;-73
2023/03/04 04:17:05;;;;;;;0.60;0.60;;;5.60;99.90;;;;;;6216446;23;20082;-74
2023/03/04 04:19:31;;;;;;;0.70;0.70;;;5.70;99.90;;;;;;6164451;23;20016;-73
2023/03/04 04:21:57;;;;;;;0.50;0.50;;;5.70;99.90;;;;;;6164753;23;20013;-74
2023/03/04 04:24:22;;;;;;;0.60;0.60;;;5.70;99.90;;;;;;6189477;23;20025;-73
2023/03/04 04:26:48;;;;;;;0.52;0.52;;;5.60;99.90;;;;;;6189786;23;20441;-73
2023/03/04 04:29:15;;;;;;;0.50;0.50;;;5.60;99.90;;;;;;6189625;23;20401;-74
2023/03/04 04:31:41;;;;;;;0.50;0.50;;;5.60;99.90;;;;;;6189367;23;20098;-73
2023/03/04 04:34:06;;;;;;;0.68;0.68;;;5.60;99.90;;;;;;6189227;23;20446;-74
2023/03/04 04:36:32;;;;;;;0.50;0.50;;;5.60;99.90;;;;;;6189475;23;20078;-73
2023/03/04 04:38:58;;;;;;;0.50;0.50;;;5.70;99.90;;;;;;6216404;23;20008;-73
2023/03/04 04:41:27;;;;;;;0.50;0.50;;;5.70;99.90;;;;;;6216221;23;20311;-73
2023/03/04 04:43:53;;;;;;;0.60;0.60;;;5.60;99.90;;;;;;6189691;23;20024;-73
2023/03/04 04:46:19;;;;;;;0.55;0.55;;;5.60;99.90;;;;;;6189378;23;20244;-73
2023/03/04 04:48:45;;;;;;;0.52;0.52;;;5.60;99.90;;;;;;6189479;23;20103;-74
2023/03/04 04:51:11;;;;;;;0.60;0.60;;;5.50;99.90;;;;;;6189609;23;20461;-74
2023/03/04 04:53:37;;;;;;;0.45;0.45;;;5.50;99.90;;;;;;6189262;23;20016;-73
2023/03/04 04:56:21;;;;;;;0.50;0.50;;;5.60;99.90;;;;;;6189172;23;20016;-73
2023/03/04 04:58:47;;;;;;;0.50;0.50;;;5.50;99.90;;;;;;6215945;23;20095;-73
2023/03/04 05:01:13;;;;;;;0.50;0.50;;;5.50;99.90;;;;;;6189142;23;20067;-73
2023/03/04 05:03:40;;;;;;;0.40;0.40;;;5.50;99.90;;;;;;6189860;23;20013;-73
2023/03/04 05:06:07;;;;;;;0.55;0.55;;;5.60;99.90;;;;;;6218118;23;20088;-73
2023/03/04 05:08:33;;;;;;;0.52;0.50;;;5.50;99.90;;;;;;6191180;23;20437;-73
2023/03/04 05:11:00;;;;;;;0.60;0.60;;;5.50;99.90;;;;;;6191109;23;20019;-73
2023/03/04 05:13:26;;;;;;;0.70;0.70;;;5.50;99.90;;;;;;6191220;23;20121;-73
2023/03/04 05:15:53;;;;;;;0.50;0.50;;;5.40;99.90;;;;;;6217825;23;20016;-73
2023/03/04 05:18:21;;;;;;;0.60;0.60;;;5.40;99.90;;;;;;6190889;23;20013;-73
2023/03/04 05:20:51;;;;;;;0.60;0.60;;;5.40;99.90;;;;;;6217478;23;20023;-73
2023/03/04 05:23:17;;;;;;;0.60;0.60;;;5.40;99.90;;;;;;6217805;23;20058;-73
2023/03/04 05:25:42;;;;;;;0.52;0.52;;;5.40;99.90;;;;;;6217490;23;20091;-73
2023/03/04 05:28:11;;;;;;;0.57;0.57;;;5.40;99.90;;;;;;6217760;23;20013;-74
2023/03/04 05:30:41;;;;;;;0.60;0.60;;;5.30;99.90;;;;;;6166011;23;20017;-73
2023/03/04 05:33:07;;;;;;;0.65;0.65;;;5.30;99.90;;;;;;6166066;23;20024;-73
2023/03/04 05:35:38;;;;;;;0.63;0.63;;;5.40;99.90;;;;;;6190862;23;20020;-73
2023/03/04 05:38:05;;;;;;;0.88;0.70;;;5.30;99.90;;;;;;6190670;23;20040;-73
2023/03/04 05:40:31;;;;;;;0.50;0.50;;;5.30;99.90;;;;;;6190494;23;20029;-73
2023/03/04 05:42:57;;;;;;;0.60;0.60;;;5.20;99.90;;;;;;6217699;23;20047;-73
2023/03/04 05:45:24;;;;;;;0.60;0.60;;;5.30;99.90;;;;;;6166037;23;20012;-73
2023/03/04 05:47:50;;;;;;;0.60;0.60;;;5.20;99.90;;;;;;6190817;23;20019;-73
2023/03/04 05:50:15;;;;;;;0.60;0.60;;;5.30;99.90;;;;;;6165749;23;20112;-73
2023/03/04 05:52:41;;;;;;;0.80;0.73;;;5.20;99.90;;;;;;6217228;23;20009;-73
2023/03/04 05:55:08;;;;;;;0.60;0.60;;;5.10;99.90;;;;;;6165746;23;20048;-73
2023/03/04 05:57:33;;;;;;;0.57;0.57;;;5.20;99.90;;;;;;6191123;23;20020;-73
2023/03/04 05:59:59;;;;;;;0.50;0.50;;;5.30;99.90;;;;;;6190785;23;20008;-73
2023/03/04 06:02:24;;;;;;;0.55;0.55;;;5.30;99.90;;;;;;6190582;23;20019;-73
2023/03/04 06:04:50;;;;;;;0.60;0.60;;;5.30;99.90;;;;;;6217493;23;20016;-73
2023/03/04 06:07:16;;;;;;;0.60;0.60;;;5.30;99.90;;;;;;6217478;23;20015;-74
2023/03/04 06:09:44;;;;;;;0.50;0.50;;;5.20;99.90;;;;;;6165699;23;20016;-74
2023/03/04 06:12:10;;;;;;;0.60;0.60;;;5.10;99.90;;;;;;6190547;23;20011;-74
2023/03/04 06:14:35;;;;;;;0.60;0.60;;;5.10;99.90;;;;;;6190280;23;20008;-74
2023/03/04 06:17:01;;;;;;;0.47;0.47;;;5.20;99.90;;;;;;6217202;23;20020;-74
2023/03/04 06:19:27;;;;;;;0.52;0.52;;;5.10;99.90;;;;;;6190590;23;20008;-74
2023/03/04 06:21:52;;;;;;;0.60;0.60;;;5.30;99.90;;;;;;6165743;23;20019;-74
2023/03/04 06:24:18;;;;;;;0.60;0.60;;;5.30;99.90;;;;;;6190505;23;20052;-74
2023/03/04 06:26:43;;;;;;;0.50;0.50;;;5.10;99.90;;;;;;6190951;23;20009;-73
2023/03/04 06:29:09;;;;;;;0.57;0.57;;;5.20;99.90;;;;;;6217393;23;20059;-74
2023/03/04 06:31:35;;;;;;;0.50;0.50;;;5.30;99.90;;;;;;6190401;23;20008;-74
2023/03/04 06:34:01;;;;;;;0.60;0.60;;;5.20;99.90;;;;;;6165947;23;20421;-74
2023/03/04 06:36:26;;;;;;;0.50;0.50;;;5.40;99.90;;;;;;6190276;23;20416;-73
2023/03/04 06:38:52;;;;;;;0.60;0.60;;;5.10;99.90;;;;;;6165484;23;20059;-74
2023/03/04 06:41:18;;;;;;;0.60;0.60;;;5.30;99.90;;;;;;6190119;23;20024;-73
2023/03/04 06:43:43;;;;;;;0.50;0.50;;;5.20;99.90;;;;;;6165666;23;20323;-74
2023/03/04 06:46:09;;;;;;;0.68;0.68;;;5.20;99.90;;;;;;6190123;23;20013;-74
2023/03/04 06:48:35;;;;;;;0.55;0.50;;;5.20;99.90;;;;;;6217116;23;20012;-73
2023/03/04 06:51:09;;;;;;;0.57;0.50;;;5.40;99.90;;;;;;6165426;23;20051;-73
2023/03/04 06:53:35;;;;;;;0.50;0.50;;;5.40;99.90;;;;;;6190156;23;20021;-69
2023/03/04 06:56:01;;;;;;;0.50;0.50;;;5.40;99.90;;;;;;6165291;23;20016;-74
2023/03/04 06:58:27;;;;;;;0.57;0.57;;;5.50;99.90;;;;;;6217185;23;20315;-74
2023/03/04 07:00:52;;;;;;;0.50;0.50;;;5.40;99.90;;;;;;6217108;23;20008;-74
2023/03/04 07:03:18;;;;;;;0.50;0.50;;;5.60;99.90;;;;;;6190074;23;20337;-73
2023/03/04 07:05:43;;;;;;;0.60;0.60;;;5.40;99.90;;;;;;6217047;23;20012;-74
2023/03/04 07:08:09;;;;;;;0.50;0.50;;;5.40;99.90;;;;;;6190172;23;20016;-74
2023/03/04 07:10:35;;;;;;;0.55;0.55;;;5.60;99.90;;;;;;6189986;23;20307;-76
2023/03/04 07:13:01;;;;;;;0.40;0.40;;;5.60;99.90;;;;;;6189956;23;20016;-74
2023/03/04 07:15:27;;;;;;;0.40;0.40;;;5.70;99.90;;;;;;6165244;23;20016;-75
2023/03/04 07:17:52;;;;;;;0.50;0.50;;;5.80;99.90;;;;;;6189970;23;20004;-75
2023/03/04 07:20:18;;;;;;;0.50;0.50;;;5.90;99.90;;;;;;6190015;23;20008;-75
2023/03/04 07:22:43;;;;;;;0.50;0.50;;;5.90;99.90;;;;;;6216849;23;20416;-75
2023/03/04 07:25:09;;;;;;;0.50;0.50;;;5.90;99.90;;;;;;6165048;23;20009;-75
2023/03/04 07:27:37;;;;;;;0.40;0.40;;;5.70;99.90;;;;;;6189679;23;20086;-75
2023/03/04 07:30:04;;;;;;;0.50;0.50;;;5.70;99.90;;;;;;6216910;23;20306;-75
2023/03/04 07:32:29;;;;;;;0.50;0.50;;;5.60;99.90;;;;;;6216730;23;20013;-77
2023/03/04 07:34:55;;;;;;;0.50;0.50;;;5.80;99.90;;;;;;6189622;23;20063;-76
2023/03/04 07:37:21;;;;;;;0.60;0.60;;;5.80;99.90;;;;;;6164999;23;20004;-76
2023/03/04 07:39:47;;;;;;;0.40;0.40;;;5.80;99.90;;;;;;6189673;23;20013;-74
2023/03/04 07:42:12;;;;;;;0.43;0.43;;;5.70;99.90;;;;;;6216091;23;20016;-75
2023/03/04 07:44:38;;;;;;;0.50;0.50;;;5.80;99.90;;;;;;6190248;23;20043;-75
2023/03/04 07:47:03;;;;;;;0.40;0.40;;;5.90;99.90;;;;;;6216653;23;20031;-76
2023/03/04 07:49:29;;;;;;;0.45;0.45;;;6.00;99.90;;;;;;6189818;23;20377;-75
2023/03/04 07:51:55;;;;;;;0.50;0.50;;;5.90;99.90;;;;;;6216696;23;20044;-75
2023/03/04 07:54:20;;;;;;;0.50;0.50;;;6.00;99.90;;;;;;6189982;23;20438;-75
2023/03/04 07:56:46;;;;;;;0.50;0.50;;;6.00;99.90;;;;;;6216593;23;20437;-74
2023/03/04 07:59:12;;;;;;;0.60;0.60;;;6.00;99.90;;;;;;6216563;23;20430;-75
2023/03/04 08:01:37;;;;;;;0.50;0.50;;;6.20;99.90;;;;;;6216517;23;20307;-75
2023/03/04 08:04:05;;;;;;;0.52;0.52;;;6.20;99.90;;;;;;6189513;23;20361;-76
2023/03/04 08:06:32;;;;;;;0.40;0.40;;;6.00;99.90;;;;;;6164793;23;20024;-76
2023/03/04 08:09:00;;;;;;;0.50;0.50;;;6.30;99.90;;;;;;6164800;23;20085;-76
2023/03/04 08:11:27;;;;;;;0.60;0.60;;;6.40;99.90;;;;;;6190474;23;20013;-75
2023/03/04 08:13:53;;;;;;;0.57;0.57;;;6.40;99.90;;;;;;6189790;23;20102;-69
2023/03/04 08:16:20;;;;;;;0.60;0.60;;;6.40;99.90;;;;;;6189930;23;20013;-72
2023/03/04 08:18:47;;;;;;;0.60;0.60;;;6.30;99.90;;;;;;6189559;23;20023;-71
2023/03/04 08:21:15;;;;;;;0.52;0.52;;;6.20;99.90;;;;;;6216158;23;20009;-71
2023/03/04 08:23:42;;;;;;;0.70;0.70;;;6.40;99.90;;;;;;6216572;23;20055;-72
2023/03/04 08:26:10;;;;;;;0.55;0.55;;;6.40;99.90;;;;;;6189441;23;20019;-72
2023/03/04 08:28:37;;;;;;;0.60;0.60;;;6.40;99.90;;;;;;6189611;23;20017;-72
2023/03/04 08:31:02;;;;;;;0.50;0.50;;;6.50;99.90;;;;;;6216458;23;20143;-72
2023/03/04 08:33:28;;;;;;;0.60;0.60;;;6.20;99.90;;;;;;6216281;23;20055;-72
2023/03/04 08:35:54;;;;;;;0.63;0.63;;;6.20;99.90;;;;;;6189340;23;20381;-71
2023/03/04 08:38:19;;;;;;;0.60;0.60;;;6.30;99.90;;;;;;6216134;23;20005;-72
2023/03/04 08:40:50;;;;;;;0.68;0.68;;;6.40;99.90;;;;;;6189199;23;20365;-71
2023/03/04 08:43:16;;;;;;;0.70;0.68;;;6.40;99.90;;;;;;6189574;23;20052;-71
2023/03/04 08:45:41;;;;;;;0.50;0.50;;;6.50;99.90;;;;;;6215980;23;20333;-69
2023/03/04 08:48:07;;;;;;;0.65;0.65;;;6.40;99.90;;;;;;6216187;23;20017;-70
2023/03/04 08:50:32;;;;;;;0.80;0.80;;;6.60;99.90;;;;;;6216190;23;20074;-69
2023/03/04 08:52:58;;;;;;;0.70;0.70;;;6.50;99.90;;;;;;6189234;23;20016;-69
2023/03/04 08:55:24;;;;;;;0.80;0.80;;;6.50;99.90;;;;;;6216364;23;20096;-68
2023/03/04 08:57:49;;;;;;;0.70;0.70;;;6.60;99.90;;;;;;6189230;23;20016;-69
2023/03/04 09:00:15;;;;;;;0.50;0.50;;;6.70;99.90;;;;;;6189336;23;20014;-70
2023/03/04 09:02:41;;;;;;;0.75;0.75;;;6.70;99.90;;;;;;6189619;23;20008;-71
2023/03/04 09:05:07;;;;;;;0.90;0.90;;;6.60;99.90;;;;;;6164594;23;20102;-70
2023/03/04 09:07:33;;;;;;;0.80;0.80;;;6.80;99.90;;;;;;6189283;23;20024;-71
2023/03/04 09:09:58;;;;;;;1.02;0.90;;;6.90;99.90;;;;;;6216066;23;20008;-73
2023/03/04 09:12:24;;;;;;;0.80;0.80;;;6.80;99.90;;;;;;6189255;23;20028;-75
2023/03/04 09:14:49;;;;;;;0.82;0.73;;;7.00;99.90;;;;;;6189042;23;20055;-77
2023/03/04 09:17:15;;;;;;;0.70;0.70;;;7.00;99.90;;;;;;6164386;23;20009;-74
2023/03/04 09:19:41;;;;;;;0.70;0.70;;;6.90;99.90;;;;;;6189031;23;20047;-71
2023/03/04 09:22:06;;;;;;;0.65;0.65;;;6.90;99.90;;;;;;6189276;23;20032;-74
2023/03/04 09:24:32;;;;;;;0.73;0.70;;;6.90;99.90;;;;;;6216012;23;20036;-76
2023/03/04 09:26:58;;;;;;;0.90;0.90;;;6.90;99.90;;;;;;6215983;23;20016;-75
2023/03/04 09:29:23;;;;;;;0.55;0.55;;;6.80;99.90;;;;;;6189171;23;20016;-75
2023/03/04 09:31:49;;;;;;;0.82;0.82;;;7.00;99.90;;;;;;6189108;23;20045;-74
2023/03/04 09:34:15;;;;;;;0.70;0.70;;;6.90;99.90;;;;;;6188790;23;20013;-74
2023/03/04 09:36:40;;;;;;;0.80;0.80;;;7.00;99.90;;;;;;6189044;23;20017;-76
2023/03/04 09:39:06;;;;;;;0.80;0.80;;;7.00;99.90;;;;;;6189133;23;20048;-77
2023/03/04 09:41:40;;;;;;;0.88;0.80;;;7.10;99.90;;;;;;6215566;23;20155;-75
2023/03/04 09:44:20;;;;;;;0.82;0.82;;;7.20;99.90;;;;;;6189075;23;20013;-75
2023/03/04 09:46:48;;;;;;;0.80;0.80;;;7.10;99.90;;;;;;6189131;23;20019;-80
2023/03/04 09:49:16;;;;;;;0.60;0.60;;;7.10;99.90;;;;;;6189041;23;20025;-73
2023/03/04 09:52:23;;;;;;;0.63;0.63;;;7.20;99.90;;;;;;6190359;23;20009;-79
2023/03/04 09:55:13;;;;;;;0.60;0.60;;;7.40;99.90;;;;;;6048304;23;20487;-74
2023/03/04 09:57:51;;;;;;;0.73;0.73;;;7.40;99.90;;;;;;6097391;23;20049;-78
2023/03/04 10:00:23;;;;;;;0.70;0.70;;;7.40;99.90;;;;;;6072247;23;20344;-76
2023/03/04 10:03:08;;;;;;;0.50;0.50;;;7.30;99.90;;;;;;6096318;23;20070;-78
2023/03/04 10:05:58;;;;;;;0.60;0.60;;;7.40;99.90;;;;;;6096341;23;20029;-78
2023/03/04 10:08:43;;;;;;;0.60;0.60;;;7.40;99.90;;;;;;6061927;23;20078;-78
2023/03/04 10:11:30;;;;;;;0.40;0.40;;;7.30;99.90;;;;;;6096336;23;20440;-75
2023/03/04 10:14:21;;;;;;;0.60;0.60;;;7.40;99.90;;;;;;6073009;23;20025;-74
2023/03/04 10:16:58;;;;;;;0.55;0.55;;;7.40;99.90;;;;;;6096375;23;20173;-74
2023/03/04 10:19:57;;;;;;;0.50;0.50;;;7.40;99.90;;;;;;6096027;23;20017;-73
2023/03/04 10:22:39;;;;;;;0.50;0.50;;;7.30;99.90;;;;;;6072251;23;20015;-75
2023/03/04 10:25:21;;;;;;;0.40;0.40;;;7.30;99.90;;;;;;6072017;23;20022;-76
2023/03/04 10:27:51;;;;;;;0.50;0.50;;;7.30;99.90;;;;;;6056976;23;20111;-76
2023/03/04 10:30:31;;;;;;;0.50;0.50;;;7.40;99.90;;;;;;6217467;23;20141;-76
2023/03/04 10:32:57;;;;;;;0.40;0.40;;;7.50;99.90;;;;;;6190507;23;20016;-76
2023/03/04 10:35:30;;;;;;;0.43;0.43;;;7.60;99.90;;;;;;6217276;23;20092;-76
2023/03/04 10:38:02;;;;;;;0.50;0.50;;;7.70;99.90;;;;;;6190432;23;20023;-76
2023/03/04 10:40:28;;;;;;;0.40;0.40;;;7.90;99.90;;;;;;6190164;23;20017;-76
2023/03/04 10:42:54;;;;;;;0.40;0.40;;;8.10;99.90;;;;;;6190357;23;20052;-76
2023/03/04 10:45:24;;;;;;;0.60;0.60;;;8.20;99.90;;;;;;6165568;23;20016;-76
2023/03/04 10:47:54;;;;;;;0.40;0.40;;;8.20;99.90;;;;;;6190235;23;20025;-76
2023/03/04 10:50:26;;;;;;;0.38;0.38;;;8.10;99.90;;;;;;6165718;23;20246;-76
2023/03/04 10:52:54;;;;;;;0.57;0.57;;;8.10;99.90;;;;;;6190301;23;20017;-70
2023/03/04 10:55:49;;;;;;;0.55;0.55;;;8.10;99.90;;;;;;6165500;23;20008;-79
2023/03/04 10:58:19;;;;;;;0.60;0.60;;;8.00;99.90;;;;;;6191504;23;20013;-79
2023/03/04 11:01:00;;;;;;;0.60;0.60;;;8.00;99.90;;;;;;6165333;23;20012;-78
2023/03/04 11:03:26;;;;;;;0.57;0.57;;;7.90;99.90;;;;;;6216786;23;20009;-81
2023/03/04 11:06:05;;;;;;;0.60;0.60;;;7.80;99.90;;;;;;6165559;23;20090;-81
2023/03/04 11:08:31;;;;;;;0.70;0.70;;;7.90;99.90;;;;;;6191524;23;20079;-87
2023/03/04 11:10:57;;;;;;;0.60;0.60;;;8.00;99.90;;;;;;6217124;23;20013;-81
2023/03/04 11:13:25;;;;;;;0.60;0.60;;;8.10;99.90;;;;;;6189970;23;20044;-81
2023/03/04 11:15:55;;;;;;;0.52;0.52;;;8.10;99.90;;;;;;6216550;23;20048;-80
2023/03/04 11:18:43;;;;;;;0.70;0.70;;;8.20;99.90;;;;;;6165157;23;20027;-79
2023/03/04 11:21:32;;;;;;;0.52;0.52;;;8.20;99.90;;;;;;6165160;23;20020;-77
2023/03/04 11:24:02;;;;;;;0.50;0.50;;;8.30;99.90;;;;;;6165058;23;20016;-75
2023/03/04 11:26:44;;;;;;;0.50;0.50;;;8.20;99.90;;;;;;6189832;23;20017;-71
2023/03/04 11:29:38;;;;;;;0.55;0.55;;;8.20;99.90;;;;;;6189802;23;20024;-76
2023/03/04 11:32:34;;;;;;;0.60;0.60;;;8.20;99.90;;;;;;6186159;23;20323;-75
2023/03/04 11:35:22;;;;;;;0.40;0.40;;;8.20;99.90;;;;;;6173946;23;20046;-76
2023/03/04 11:38:14;;;;;;;0.80;0.63;;;8.20;99.90;;;;;;6189707;23;20066;-76
2023/03/04 11:40:49;;;;;;;0.57;0.57;;;8.40;99.90;;;;;;6190001;23;20009;-74
2023/03/04 11:43:34;;;;;;;0.50;0.50;;;8.40;99.90;;;;;;6164840;23;20012;-74
2023/03/04 11:46:22;;;;;;;0.50;0.50;;;8.50;99.90;;;;;;6165255;23;20017;-74
2023/03/04 11:49:10;;;;;;;0.60;0.60;;;8.60;99.90;;;;;;6216926;23;20079;-77
2023/03/04 11:51:47;;;;;;;0.57;0.57;;;8.60;99.90;;;;;;6190356;23;20012;-75
2023/03/04 11:54:51;;;;;;;0.50;0.50;;;8.60;99.90;;;;;;6216237;23;20081;-77
2023/03/04 11:57:22;;;;;;;0.50;0.50;;;8.40;99.90;;;;;;6071426;23;20025;-77
2023/03/04 12:00:34;;;;;;;0.60;0.60;;;8.20;99.90;;;;;;6071255;23;20015;-77
2023/03/04 12:03:37;;;;;;;0.60;0.60;;;8.20;99.90;;;;;;6047444;23;20010;-77
2023/03/04 12:06:38;;;;;;;0.60;0.60;;;8.20;99.90;;;;;;6047078;23;20017;-77
2023/03/04 12:09:12;;;;;;;0.60;0.60;;;8.30;99.90;;;;;;6071074;23;20015;-77
2023/03/04 12:11:55;;;;;;;0.50;0.50;;;8.60;99.90;;;;;;6071109;23;20060;-78
2023/03/04 12:14:25;;;;;;;0.60;0.60;;;8.60;99.90;;;;;;6070629;23;20169;-78
2023/03/04 12:17:15;;;;;;;0.47;0.47;;;8.80;99.90;;;;;;6071136;23;20053;-78
2023/03/04 12:19:46;;;;;;;0.55;0.55;;;8.90;99.90;;;;;;6047722;23;20428;-77
2023/03/04 12:22:42;;;;;;;0.50;0.50;;;9.00;99.90;;;;;;6070867;23;20011;-78
2023/03/04 12:25:26;;;;;;;0.60;0.60;;;9.10;99.90;;;;;;6095021;23;20511;-78
2023/03/04 12:28:04;;;;;;;0.45;0.45;;;9.20;99.90;;;;;;6095188;23;20098;-77
2023/03/04 12:30:49;;;;;;;0.40;0.40;;;9.30;99.90;;;;;;6046979;23;20046;-77
2023/03/04 12:33:32;;;;;;;0.40;0.40;;;9.10;99.90;;;;;;6092072;23;20012;-78
2023/03/04 12:36:15;;;;;;;0.55;0.55;;;8.80;99.90;;;;;;6164409;23;20096;-77
2023/03/04 12:39:02;;;;;;;0.63;0.60;;;8.80;99.90;;;;;;6216381;23;20021;-78
2023/03/04 12:41:47;;;;;;;0.50;0.50;;;8.90;99.90;;;;;;6189351;23;20013;-78
2023/03/04 12:44:20;;;;;;;0.47;0.47;;;9.40;99.90;;;;;;6164459;23;20099;-78
2023/03/04 12:47:15;;;;;;;0.32;0.32;;;10.30;99.90;;;;;;6165168;23;20019;-78
2023/03/04 12:49:52;;;;;;;0.50;0.50;;;11.20;99.90;;;;;;6164587;23;20019;-78
2023/03/04 12:52:24;;;;;;;0.40;0.40;;;11.10;98.70;;;;;;6189177;23;20012;-77
2023/03/04 12:54:59;;;;;;;0.35;0.35;;;10.80;98.30;;;;;;6189298;23;20009;-78
2023/03/04 12:57:30;;;;;;;0.43;0.43;;;10.40;99.00;;;;;;6189135;23;20476;-77
2023/03/04 13:00:15;;;;;;;0.50;0.50;;;10.20;99.90;;;;;;6189319;23;20019;-77
2023/03/04 13:02:57;;;;;;;0.50;0.50;;;9.90;99.90;;;;;;6189182;23;20024;-78
2023/03/04 13:05:46;;;;;;;0.40;0.40;;;9.70;99.90;;;;;;6216144;23;20059;-79
2023/03/04 13:08:44;;;;;;;0.47;0.47;;;9.60;99.90;;;;;;6189249;23;20047;-78
2023/03/04 13:11:25;;;;;;;0.47;0.47;;;9.50;99.90;;;;;;6164537;23;20464;-75
2023/03/04 13:14:13;;;;;;;0.50;0.50;;;9.30;99.90;;;;;;6189644;23;20315;-81